Time,TemperatureF,DewpointF,PressureIn,WindDirection,WindDirectionDegrees,WindSpeedMPH,WindSpeedGustMPH,Humidity,HourlyPrecipIn,Conditions,Clouds,dailyrainin,SoftwareType,DateUTC
2013-04-25 00:01:00,35.0,27.0,30.02,WNW,284,0.0,0.0,71,0.00,,,0.00,,2013-04-25 07:01:00,
2013-04-25 00:11:00,35.0,27.0,30.02,WNW,284,0.0,0.0,71,0.00,,,0.00,,2013-04-25 07:11:00,
2013-04-25 00:21:00,33.0,26.0,30.02,WNW,284,0.0,1.0,75,0.00,,,0.00,,2013-04-25 07:21:00,
2013-04-25 00:31:00,32.0,25.0,30.02,WNW,284,0.0,1.0,76,0.00,,,0.00,,2013-04-25 07:31:00,
2013-04-25 00:42:00,32.0,25.0,30.02,WNW,284,0.0,1.0,76,0.00,,,0.00,,2013-04-25 07:42:00,
2013-04-25 00:52:00,31.0,25.0,30.02,WNW,284,0.0,1.0,78,0.00,,,0.00,,2013-04-25 07:52:00,
2013-04-25 01:01:00,31.0,25.0,30.03,WNW,284,0.0,1.0,78,0.00,,,0.00,,2013-04-25 08:01:00,
2013-04-25 01:11:00,31.0,25.0,30.03,WNW,284,0.0,1.0,78,0.00,,,0.00,,2013-04-25 08:11:00,
2013-04-25 01:21:00,31.0,24.0,30.03,WNW,284,0.0,2.0,76,0.00,,,0.00,,2013-04-25 08:21:00,
2013-04-25 01:31:00,30.0,24.0,30.02,WNW,284,1.0,2.0,78,0.00,,,0.00,,2013-04-25 08:31:00,
2013-04-25 01:41:00,30.0,24.0,30.02,WNW,284,1.0,2.0,78,0.00,,,0.00,,2013-04-25 08:41:00,
2013-04-25 01:51:00,29.0,24.0,30.02,WNW,284,0.0,1.0,80,0.00,,,0.00,,2013-04-25 08:51:00,
2013-04-25 02:01:00,29.0,24.0,30.02,WNW,284,0.0,2.0,81,0.00,,,0.00,,2013-04-25 09:01:00,
2013-04-25 02:11:00,29.0,24.0,30.02,WNW,284,0.0,2.0,81,0.00,,,0.00,,2013-04-25 09:11:00,
2013-04-25 02:21:00,28.0,22.0,30.01,WNW,284,0.0,1.0,78,0.00,,,0.00,,2013-04-25 09:21:00,
2013-04-25 02:32:00,28.0,23.0,30.01,WNW,284,0.0,1.0,82,0.00,,,0.00,,2013-04-25 09:32:00,
2013-04-25 02:42:00,28.0,23.0,30.01,WNW,284,0.0,1.0,82,0.00,,,0.00,,2013-04-25 09:42:00,
2013-04-25 02:52:00,28.0,23.0,30.01,WNW,284,0.0,2.0,82,0.00,,,0.00,,2013-04-25 09:52:00,
2013-04-25 03:02:00,28.0,23.0,30.01,WNW,284,0.0,2.0,81,0.00,,,0.00,,2013-04-25 10:02:00,
2013-04-25 03:12:00,28.0,23.0,30.01,WNW,284,0.0,2.0,81,0.00,,,0.00,,2013-04-25 10:12:00,
2013-04-25 03:22:00,27.0,21.0,30.01,WNW,284,1.0,4.0,79,0.00,,,0.00,,2013-04-25 10:22:00,
2013-04-25 03:32:00,27.0,21.0,30.01,WNW,284,1.0,3.0,79,0.00,,,0.00,,2013-04-25 10:32:00,
2013-04-25 03:52:00,27.0,22.0,30.01,WNW,284,1.0,3.0,82,0.00,,,0.00,,2013-04-25 10:52:00,
2013-04-25 04:02:00,27.0,22.0,30.02,WNW,284,1.0,2.0,80,0.00,,,0.00,,2013-04-25 11:02:00,
2013-04-25 04:12:00,27.0,22.0,30.02,WNW,284,1.0,2.0,80,0.00,,,0.00,,2013-04-25 11:12:00,
2013-04-25 04:22:00,27.0,22.0,30.01,WNW,284,0.0,2.0,80,0.00,,,0.00,,2013-04-25 11:22:00,
2013-04-25 04:32:00,27.0,21.0,30.02,WNW,284,0.0,2.0,79,0.00,,,0.00,,2013-04-25 11:32:00,
2013-04-25 04:42:00,27.0,21.0,30.02,WNW,284,0.0,2.0,79,0.00,,,0.00,,2013-04-25 11:42:00,
2013-04-25 04:51:00,26.0,21.0,30.02,WNW,284,0.0,0.0,80,0.00,,,0.00,,2013-04-25 11:51:00,
2013-04-25 05:01:00,26.0,21.0,30.02,WNW,284,1.0,3.0,82,0.00,,,0.00,,2013-04-25 12:01:00,
2013-04-25 05:12:00,26.0,21.0,30.02,WNW,284,1.0,3.0,82,0.00,,,0.00,,2013-04-25 12:12:00,
2013-04-25 05:21:00,26.0,22.0,30.01,WNW,284,0.0,2.0,83,0.00,,,0.00,,2013-04-25 12:21:00,
2013-04-25 05:31:00,26.0,22.0,30.01,West,281,0.0,3.0,83,0.00,,,0.00,,2013-04-25 12:31:00,
2013-04-25 05:41:00,26.0,22.0,30.01,West,281,0.0,3.0,83,0.00,,,0.00,,2013-04-25 12:41:00,
2013-04-25 05:51:00,26.0,21.0,30.01,South,188,2.0,5.0,80,0.00,,,0.00,,2013-04-25 12:51:00,
2013-04-25 06:02:00,26.0,21.0,30.02,South,188,1.0,5.0,80,0.00,,,0.00,,2013-04-25 13:02:00,
2013-04-25 06:11:00,26.0,21.0,30.02,South,188,1.0,5.0,80,0.00,,,0.00,,2013-04-25 13:11:00,
2013-04-25 06:21:00,26.0,19.0,30.02,SSW,202,2.0,6.0,74,0.00,,,0.00,,2013-04-25 13:21:00,
2013-04-25 06:31:00,26.0,19.0,30.02,SSW,202,0.0,4.0,75,0.00,,,0.00,,2013-04-25 13:31:00,
2013-04-25 06:42:00,26.0,19.0,30.02,SSW,202,0.0,4.0,75,0.00,,,0.00,,2013-04-25 13:42:00,
2013-04-25 06:52:00,26.0,19.0,30.02,SSW,202,1.0,4.0,75,0.00,,,0.00,,2013-04-25 13:52:00,
2013-04-25 07:01:00,25.0,19.0,30.03,SSW,203,0.0,6.0,76,0.00,,,0.00,,2013-04-25 14:01:00,
2013-04-25 07:11:00,25.0,19.0,30.03,SSW,203,0.0,6.0,76,0.00,,,0.00,,2013-04-25 14:11:00,
2013-04-25 07:21:00,25.0,19.0,30.03,SSW,205,1.0,5.0,77,0.00,,,0.00,,2013-04-25 14:21:00,
2013-04-25 07:32:00,26.0,19.0,30.03,SW,217,2.0,5.0,75,0.00,,,0.00,,2013-04-25 14:32:00,
2013-04-25 07:42:00,26.0,19.0,30.03,SW,217,2.0,5.0,75,0.00,,,0.00,,2013-04-25 14:42:00,
2013-04-25 07:51:00,28.0,20.0,30.03,SW,217,0.0,3.0,72,0.00,,,0.00,,2013-04-25 14:51:00,
2013-04-25 08:02:00,30.0,21.0,30.04,SW,217,1.0,4.0,69,0.00,,,0.00,,2013-04-25 15:02:00,
2013-04-25 08:11:00,30.0,21.0,30.04,SW,217,1.0,4.0,69,0.00,,,0.00,,2013-04-25 15:11:00,
2013-04-25 08:21:00,33.0,23.0,30.04,SSW,211,2.0,6.0,65,0.00,,,0.00,,2013-04-25 15:21:00,
2013-04-25 08:33:00,35.0,23.0,30.04,SSW,208,3.0,7.0,60,0.00,,,0.00,,2013-04-25 15:33:00,
2013-04-25 08:42:00,35.0,23.0,30.04,SSW,208,3.0,7.0,60,0.00,,,0.00,,2013-04-25 15:42:00,
2013-04-25 08:52:00,37.0,24.0,30.03,SSW,194,3.0,6.0,60,0.00,,,0.00,,2013-04-25 15:52:00,
2013-04-25 09:02:00,38.0,25.0,30.04,South,180,3.0,7.0,60,0.00,,,0.00,,2013-04-25 16:02:00,
2013-04-25 09:13:00,38.0,25.0,30.04,South,180,3.0,7.0,60,0.00,,,0.00,,2013-04-25 16:13:00,
2013-04-25 09:24:00,40.0,26.0,30.04,South,169,3.0,7.0,57,0.00,,,0.00,,2013-04-25 16:24:00,
2013-04-25 09:32:00,42.0,27.0,30.03,SSW,200,2.0,7.0,54,0.00,,,0.00,,2013-04-25 16:32:00,
2013-04-25 09:42:00,42.0,27.0,30.03,SSW,200,2.0,7.0,54,0.00,,,0.00,,2013-04-25 16:42:00,
2013-04-25 09:52:00,44.0,26.0,30.03,South,186,5.0,7.0,49,0.00,,,0.00,,2013-04-25 16:52:00,
2013-04-25 10:02:00,46.0,25.0,30.03,South,176,4.0,7.0,44,0.00,,,0.00,,2013-04-25 17:02:00,
2013-04-25 10:11:00,46.0,25.0,30.03,South,176,4.0,7.0,44,0.00,,,0.00,,2013-04-25 17:11:00,
2013-04-25 10:22:00,50.0,28.0,30.04,South,178,3.0,8.0,42,0.00,,,0.00,,2013-04-25 17:22:00,
2013-04-25 10:32:00,51.0,27.0,30.03,South,169,2.0,7.0,39,0.00,,,0.00,,2013-04-25 17:32:00,
2013-04-25 10:42:00,51.0,27.0,30.03,South,169,2.0,7.0,39,0.00,,,0.00,,2013-04-25 17:42:00,
2013-04-25 10:53:00,54.0,28.0,30.03,SSW,208,2.0,7.0,37,0.00,,,0.00,,2013-04-25 17:53:00,
2013-04-25 11:01:00,57.0,27.0,30.02,SW,236,4.0,8.0,31,0.00,,,0.00,,2013-04-25 18:01:00,
2013-04-25 11:11:00,57.0,27.0,30.02,SW,236,4.0,8.0,31,0.00,,,0.00,,2013-04-25 18:11:00,
2013-04-25 11:21:00,59.0,27.0,30.02,SW,232,3.0,9.0,29,0.00,,,0.00,,2013-04-25 18:21:00,
2013-04-25 11:32:00,60.0,24.0,30.02,SSW,198,5.0,9.0,25,0.00,,,0.00,,2013-04-25 18:32:00,
2013-04-25 11:42:00,60.0,24.0,30.02,SSW,198,5.0,9.0,25,0.00,,,0.00,,2013-04-25 18:42:00,
2013-04-25 11:52:00,61.0,24.0,30.01,South,188,6.0,10.0,24,0.00,,,0.00,,2013-04-25 18:52:00,
2013-04-25 12:01:00,62.0,25.0,30.01,South,182,6.0,9.0,24,0.00,,,0.00,,2013-04-25 19:01:00,
2013-04-25 12:12:00,62.0,25.0,30.01,South,182,6.0,9.0,24,0.00,,,0.00,,2013-04-25 19:12:00,
2013-04-25 12:21:00,64.0,26.0,30.01,SSE,167,0.0,8.0,24,0.00,,,0.00,,2013-04-25 19:21:00,
2013-04-25 12:31:00,66.0,28.0,30.00,NE,45,5.0,11.0,24,0.00,,,0.00,,2013-04-25 19:31:00,
2013-04-25 12:41:00,66.0,28.0,30.00,NE,45,5.0,11.0,24,0.00,,,0.00,,2013-04-25 19:41:00,
2013-04-25 12:52:00,69.0,29.0,29.99,ENE,70,8.0,13.0,22,0.00,,,0.00,,2013-04-25 19:52:00,
2013-04-25 13:01:00,69.0,30.0,29.99,ENE,65,11.0,18.0,23,0.00,,,0.00,,2013-04-25 20:01:00,
2013-04-25 13:11:00,69.0,30.0,29.99,ENE,65,11.0,18.0,23,0.00,,,0.00,,2013-04-25 20:11:00,
2013-04-25 13:22:00,69.0,29.0,29.99,East,92,9.0,15.0,22,0.00,,,0.00,,2013-04-25 20:22:00,
2013-04-25 13:32:00,70.0,29.0,29.99,NE,50,7.0,12.0,22,0.00,,,0.00,,2013-04-25 20:32:00,
2013-04-25 13:42:00,70.0,29.0,29.99,NE,50,7.0,12.0,22,0.00,,,0.00,,2013-04-25 20:42:00,
2013-04-25 13:51:00,71.0,30.0,29.99,NE,34,7.0,13.0,22,0.00,,,0.00,,2013-04-25 20:51:00,
2013-04-25 14:01:00,71.0,33.0,29.99,ENE,66,7.0,15.0,25,0.00,,,0.00,,2013-04-25 21:01:00,
2013-04-25 14:11:00,71.0,33.0,29.99,ENE,66,7.0,15.0,25,0.00,,,0.00,,2013-04-25 21:11:00,
2013-04-25 14:21:00,70.0,33.0,29.99,North,5,5.0,18.0,25,0.00,,,0.00,,2013-04-25 21:21:00,
2013-04-25 14:33:00,71.0,32.0,29.99,ENE,57,7.0,21.0,24,0.00,,,0.00,,2013-04-25 21:33:00,
2013-04-25 14:42:00,71.0,32.0,29.99,ENE,57,7.0,21.0,24,0.00,,,0.00,,2013-04-25 21:42:00,
2013-04-25 14:52:00,71.0,32.0,29.99,NNE,24,7.0,17.0,24,0.00,,,0.00,,2013-04-25 21:52:00,
2013-04-25 15:02:00,71.0,32.0,30.00,ENE,65,8.0,19.0,24,0.00,,,0.00,,2013-04-25 22:02:00,
2013-04-25 15:12:00,71.0,32.0,30.00,ENE,65,8.0,19.0,24,0.00,,,0.00,,2013-04-25 22:12:00,
2013-04-25 15:22:00,71.0,32.0,30.01,NE,44,10.0,19.0,24,0.00,,,0.00,,2013-04-25 22:22:00,
2013-04-25 15:32:00,70.0,34.0,30.01,NE,36,9.0,14.0,26,0.00,,,0.00,,2013-04-25 22:32:00,
2013-04-25 15:42:00,70.0,34.0,30.01,NE,36,9.0,14.0,26,0.00,,,0.00,,2013-04-25 22:42:00,
2013-04-25 15:52:00,69.0,32.0,30.01,NNE,31,7.0,14.0,25,0.00,,,0.00,,2013-04-25 22:52:00,
2013-04-25 16:02:00,69.0,33.0,30.01,NNW,336,4.0,13.0,26,0.00,,,0.00,,2013-04-25 23:02:00,
2013-04-25 16:12:00,69.0,33.0,30.01,NNW,336,4.0,13.0,26,0.00,,,0.00,,2013-04-25 23:12:00,
2013-04-25 16:21:00,70.0,32.0,30.01,NNE,25,8.0,20.0,24,0.00,,,0.00,,2013-04-25 23:21:00,
2013-04-25 16:32:00,70.0,33.0,30.00,NW,323,3.0,14.0,25,0.00,,,0.00,,2013-04-25 23:32:00,
2013-04-25 16:41:00,70.0,33.0,30.00,NW,323,3.0,14.0,25,0.00,,,0.00,,2013-04-25 23:41:00,
2013-04-25 16:52:00,70.0,33.0,30.00,North,11,4.0,12.0,25,0.00,,,0.00,,2013-04-25 23:52:00,
2013-04-25 17:01:00,69.0,32.0,30.00,West,272,3.0,13.0,25,0.00,,,0.00,,2013-04-26 00:01:00,
2013-04-25 17:11:00,69.0,32.0,30.00,West,272,3.0,13.0,25,0.00,,,0.00,,2013-04-26 00:11:00,
2013-04-25 17:21:00,69.0,32.0,30.00,NW,317,4.0,13.0,25,0.00,,,0.00,,2013-04-26 00:21:00,
2013-04-25 17:31:00,69.0,32.0,30.01,NW,317,5.0,11.0,25,0.00,,,0.00,,2013-04-26 00:31:00,
2013-04-25 17:41:00,69.0,32.0,30.01,NW,317,5.0,11.0,25,0.00,,,0.00,,2013-04-26 00:41:00,
2013-04-25 17:51:00,69.0,32.0,30.01,NW,321,4.0,10.0,25,0.00,,,0.00,,2013-04-26 00:51:00,
2013-04-25 18:01:00,69.0,32.0,30.02,NNE,13,4.0,8.0,25,0.00,,,0.00,,2013-04-26 01:01:00,
2013-04-25 18:11:00,69.0,32.0,30.02,NNE,13,4.0,8.0,25,0.00,,,0.00,,2013-04-26 01:11:00,
2013-04-25 18:21:00,69.0,32.0,30.02,NNE,17,2.0,10.0,25,0.00,,,0.00,,2013-04-26 01:21:00,
2013-04-25 18:31:00,68.0,32.0,30.02,NE,44,5.0,12.0,26,0.00,,,0.00,,2013-04-26 01:31:00,
2013-04-25 18:41:00,68.0,32.0,30.02,NE,44,5.0,12.0,26,0.00,,,0.00,,2013-04-26 01:41:00,
2013-04-25 18:52:00,68.0,31.0,30.02,NE,38,5.0,11.0,25,0.00,,,0.00,,2013-04-26 01:52:00,
2013-04-25 19:01:00,67.0,32.0,30.03,NNE,28,3.0,7.0,27,0.00,,,0.00,,2013-04-26 02:01:00,
2013-04-25 19:11:00,67.0,32.0,30.03,NNE,28,3.0,7.0,27,0.00,,,0.00,,2013-04-26 02:11:00,
2013-04-25 19:21:00,66.0,34.0,30.03,NNE,22,0.0,2.0,30,0.00,,,0.00,,2013-04-26 02:21:00,
2013-04-25 19:31:00,63.0,37.0,30.03,WNW,295,0.0,9.0,38,0.00,,,0.00,,2013-04-26 02:31:00,
2013-04-25 19:42:00,63.0,37.0,30.03,WNW,295,0.0,9.0,38,0.00,,,0.00,,2013-04-26 02:42:00,
2013-04-25 19:51:00,61.0,37.0,30.04,WNW,282,2.0,7.0,41,0.00,,,0.00,,2013-04-26 02:51:00,
2013-04-25 20:01:00,60.0,37.0,30.05,WNW,292,2.0,7.0,43,0.00,,,0.00,,2013-04-26 03:01:00,
2013-04-25 20:11:00,60.0,37.0,30.05,WNW,292,2.0,7.0,43,0.00,,,0.00,,2013-04-26 03:11:00,
2013-04-25 20:21:00,58.0,37.0,30.05,South,183,0.0,2.0,46,0.00,,,0.00,,2013-04-26 03:21:00,
2013-04-25 20:32:00,57.0,37.0,30.06,South,183,0.0,1.0,47,0.00,,,0.00,,2013-04-26 03:32:00,
2013-04-25 20:43:00,57.0,37.0,30.06,South,183,0.0,1.0,47,0.00,,,0.00,,2013-04-26 03:43:00,
2013-04-25 20:52:00,56.0,37.0,30.07,South,183,0.0,1.0,49,0.00,,,0.00,,2013-04-26 03:52:00,
2013-04-25 21:02:00,53.0,37.0,30.08,South,184,1.0,2.0,54,0.00,,,0.00,,2013-04-26 04:02:00,
2013-04-25 21:12:00,53.0,37.0,30.08,South,184,1.0,2.0,54,0.00,,,0.00,,2013-04-26 04:12:00,
2013-04-25 21:22:00,52.0,37.0,30.08,South,183,1.0,2.0,56,0.00,,,0.00,,2013-04-26 04:22:00,
2013-04-25 21:32:00,50.0,37.0,30.09,South,184,0.0,2.0,61,0.00,,,0.00,,2013-04-26 04:32:00,
2013-04-25 21:43:00,50.0,37.0,30.09,South,184,0.0,2.0,61,0.00,,,0.00,,2013-04-26 04:43:00,
2013-04-25 21:52:00,49.0,38.0,30.10,South,184,0.0,3.0,65,0.00,,,0.00,,2013-04-26 04:52:00,
2013-04-25 22:02:00,48.0,36.0,30.10,South,184,0.0,3.0,64,0.00,,,0.00,,2013-04-26 05:02:00,
2013-04-25 22:12:00,48.0,36.0,30.10,South,184,0.0,3.0,64,0.00,,,0.00,,2013-04-26 05:12:00,
2013-04-25 22:22:00,46.0,36.0,30.11,South,178,0.0,4.0,69,0.00,,,0.00,,2013-04-26 05:22:00,
2013-04-25 22:32:00,46.0,37.0,30.11,South,178,0.0,2.0,70,0.00,,,0.00,,2013-04-26 05:32:00,
2013-04-25 22:41:00,46.0,37.0,30.11,South,178,0.0,2.0,70,0.00,,,0.00,,2013-04-26 05:41:00,
2013-04-25 22:52:00,45.0,36.0,30.11,SE,142,0.0,3.0,70,0.00,,,0.00,,2013-04-26 05:52:00,
2013-04-25 23:02:00,44.0,35.0,30.11,ESE,113,0.0,1.0,71,0.00,,,0.00,,2013-04-26 06:02:00,
2013-04-25 23:11:00,44.0,35.0,30.11,ESE,113,0.0,1.0,71,0.00,,,0.00,,2013-04-26 06:11:00,
2013-04-25 23:21:00,44.0,36.0,30.11,ESE,113,0.0,1.0,74,0.00,,,0.00,,2013-04-26 06:21:00,
2013-04-25 23:32:00,43.0,36.0,30.11,ESE,113,0.0,1.0,75,0.00,,,0.00,,2013-04-26 06:32:00,
2013-04-25 23:41:00,43.0,36.0,30.11,ESE,113,0.0,1.0,75,0.00,,,0.00,,2013-04-26 06:41:00,
2013-04-25 23:51:00,42.0,35.0,30.12,ESE,117,0.0,2.0,77,0.00,,,0.00,,2013-04-26 06:51:00,